Time;durP1;ratioP1;P1;durP2;ratioP2;P2;SDS_P1;SDS_P2;PMS_P1;PMS_P2;Temp;Humidity;BMP_temperature;BMP_pressure;BME280_temperature;BME280_humidity;BME280_pressure;Samples;Min_cycle;Max_cycle;Signal;HPM_P1;HPM_P2
2023/01/03 00:00:12;;;;;;;15.80;8.15;;;;;;;;;;5107968;27;20039;-69
2023/01/03 00:02:39;;;;;;;17.02;7.78;;;;;;;;;;5135576;27;20054;-69
2023/01/03 00:05:05;;;;;;;16.05;8.02;;;;;;;;;;5098351;27;20043;-69
2023/01/03 00:07:34;;;;;;;20.35;8.10;;;;;;;;;;5102618;28;20039;-71
2023/01/03 00:10:03;;;;;;;18.10;8.55;;;;;;;;;;5104184;28;20086;-70
2023/01/03 00:12:31;;;;;;;16.00;8.70;;;;;;;;;;5106997;27;20043;-70
2023/01/03 00:14:57;;;;;;;22.10;9.00;;;;;;;;;;5112127;27;20043;-70
2023/01/03 00:17:23;;;;;;;15.23;8.82;;;;;;;;;;5104377;28;20052;-70
2023/01/03 00:19:49;;;;;;;16.60;8.52;;;;;;;;;;5098204;28;20518;-70
2023/01/03 00:22:16;;;;;;;15.57;8.50;;;;;;;;;;5098058;28;20040;-70
2023/01/03 00:24:43;;;;;;;18.50;8.38;;;;;;;;;;5105678;28;20047;-70
2023/01/03 00:27:09;;;;;;;17.08;9.35;;;;;;;;;;5106703;28;20058;-70
2023/01/03 00:29:36;;;;;;;19.70;10.25;;;;;;;;;;5099484;28;20056;-70
2023/01/03 00:32:02;;;;;;;19.80;12.07;;;;;;;;;;5104594;28;20048;-70
2023/01/03 00:34:28;;;;;;;19.15;11.40;;;;;;;;;;5111642;28;20067;-70
2023/01/03 00:36:54;;;;;;;19.35;11.40;;;;;;;;;;5107003;28;20036;-70
2023/01/03 00:39:21;;;;;;;22.15;11.52;;;;;;;;;;5099383;28;20513;-70
2023/01/03 00:41:47;;;;;;;21.83;12.27;;;;;;;;;;5112723;27;20070;-70
2023/01/03 00:44:13;;;;;;;18.25;12.07;;;;;;;;;;5112468;27;20092;-70
2023/01/03 00:46:39;;;;;;;21.25;12.27;;;;;;;;;;5107494;28;20054;-70
2023/01/03 00:49:05;;;;;;;20.63;11.15;;;;;;;;;;5111818;28;20048;-69
2023/01/03 00:51:33;;;;;;;20.13;10.48;;;;;;;;;;5099398;28;20042;-70
2023/01/03 00:53:59;;;;;;;24.33;12.07;;;;;;;;;;5094492;28;20043;-70
2023/01/03 00:56:27;;;;;;;20.63;11.70;;;;;;;;;;5101031;28;20050;-70
2023/01/03 00:58:53;;;;;;;23.60;11.73;;;;;;;;;;5101766;28;20039;-70
2023/01/03 01:01:21;;;;;;;20.80;12.65;;;;;;;;;;5096481;28;20051;-70
2023/01/03 01:03:49;;;;;;;23.55;12.35;;;;;;;;;;5094060;28;20399;-70
2023/01/03 01:06:15;;;;;;;24.65;13.45;;;;;;;;;;5095132;28;20135;-70
2023/01/03 01:08:42;;;;;;;24.60;13.13;;;;;;;;;;5096232;28;20035;-70
2023/01/03 01:11:09;;;;;;;26.60;12.98;;;;;;;;;;5115173;27;20039;-70
2023/01/03 01:13:35;;;;;;;28.67;13.90;;;;;;;;;;5105491;28;20094;-70
2023/01/03 01:16:07;;;;;;;27.70;15.02;;;;;;;;;;5093291;28;20044;-70
2023/01/03 01:18:33;;;;;;;23.80;12.85;;;;;;;;;;5113844;28;20044;-70
2023/01/03 01:20:59;;;;;;;26.25;14.25;;;;;;;;;;5112424;28;20044;-70
2023/01/03 01:23:25;;;;;;;24.52;14.13;;;;;;;;;;5093044;28;20116;-70
2023/01/03 01:25:51;;;;;;;32.55;14.68;;;;;;;;;;5110324;28;20040;-70
2023/01/03 01:28:17;;;;;;;24.48;13.63;;;;;;;;;;5113876;28;20082;-70
2023/01/03 01:30:43;;;;;;;27.08;14.68;;;;;;;;;;5109479;27;20040;-70
2023/01/03 01:33:09;;;;;;;27.08;15.18;;;;;;;;;;5120952;27;20052;-70
2023/01/03 01:35:35;;;;;;;25.02;14.65;;;;;;;;;;5102510;28;20052;-70
2023/01/03 01:38:01;;;;;;;32.10;16.05;;;;;;;;;;5107847;28;20040;-70
2023/01/03 01:40:27;;;;;;;22.90;13.45;;;;;;;;;;5104967;28;20044;-70
2023/01/03 01:45:39;;;;;;;30.98;15.00;;;;;;;;;;5115903;27;20075;-70
2023/01/03 01:48:07;;;;;;;26.45;14.77;;;;;;;;;;5103123;28;20038;-70
2023/01/03 01:50:33;;;;;;;24.30;14.48;;;;;;;;;;5098384;28;20044;-70
2023/01/03 01:53:06;;;;;;;23.38;14.65;;;;;;;;;;5092786;28;20085;-70
2023/01/03 01:55:38;;;;;;;22.27;14.07;;;;;;;;;;5095483;28;20473;-70
2023/01/03 01:58:05;;;;;;;25.80;14.20;;;;;;;;;;5106229;28;20040;-70
2023/01/03 02:00:32;;;;;;;26.20;15.30;;;;;;;;;;5111818;27;20405;-70
2023/01/03 02:02:58;;;;;;;23.60;13.55;;;;;;;;;;5096471;28;20048;-70
2023/01/03 02:05:25;;;;;;;22.67;15.57;;;;;;;;;;5104373;28;20043;-70
2023/01/03 02:07:51;;;;;;;26.40;15.18;;;;;;;;;;5096602;28;20040;-70
2023/01/03 02:10:19;;;;;;;27.10;15.20;;;;;;;;;;5101169;28;20044;-70
2023/01/03 02:13:06;;;;;;;27.73;15.77;;;;;;;;;;5096180;28;20089;-69
2023/01/03 02:15:45;;;;;;;25.80;15.05;;;;;;;;;;5107722;28;20128;-69
2023/01/03 02:18:18;;;;;;;26.38;14.82;;;;;;;;;;5110694;28;20063;-70
2023/01/03 02:21:03;;;;;;;26.38;14.50;;;;;;;;;;5096740;28;20052;-70
2023/01/03 02:23:44;;;;;;;27.40;15.25;;;;;;;;;;5110831;28;20083;-69
2023/01/03 02:26:10;;;;;;;;;;;;;;;;;;5095950;28;20071;-69
2023/01/03 02:28:36;;;;;;;21.33;13.77;;;;;;;;;;5101293;28;19959;-69
2023/01/03 02:31:02;;;;;;;26.63;15.25;;;;;;;;;;5114049;28;20050;-69
2023/01/03 02:33:36;;;;;;;24.23;14.27;;;;;;;;;;5106734;28;20048;-71
2023/01/03 02:36:05;;;;;;;25.95;14.50;;;;;;;;;;5106145;28;20063;-70
2023/01/03 02:38:31;;;;;;;22.90;13.35;;;;;;;;;;5110752;28;20447;-71
2023/01/03 02:41:00;;;;;;;28.17;14.77;;;;;;;;;;5112937;28;20043;-71
2023/01/03 02:43:39;;;;;;;26.65;14.52;;;;;;;;;;5107603;28;20508;-72
2023/01/03 02:46:12;;;;;;;22.25;13.98;;;;;;;;;;5105496;28;20063;-72
2023/01/03 02:48:41;;;;;;;26.75;14.60;;;;;;;;;;5115451;28;20073;-70
2023/01/03 02:51:14;;;;;;;27.15;14.65;;;;;;;;;;5104680;28;20043;-70
2023/01/03 02:53:44;;;;;;;26.27;15.68;;;;;;;;;;5115296;28;20051;-70
2023/01/03 02:56:12;;;;;;;25.60;14.57;;;;;;;;;;5112248;27;20042;-70
2023/01/03 02:58:39;;;;;;;25.17;14.18;;;;;;;;;;5119090;27;20046;-69
2023/01/03 03:01:06;;;;;;;22.77;13.70;;;;;;;;;;5114103;28;20036;-70
2023/01/03 03:03:36;;;;;;;24.73;14.00;;;;;;;;;;5113122;28;20035;-70
2023/01/03 03:06:17;;;;;;;26.17;14.82;;;;;;;;;;5100583;28;20513;-69
2023/01/03 03:08:44;;;;;;;25.60;14.73;;;;;;;;;;5094233;28;20044;-69
2023/01/03 03:14:00;;;;;;;26.20;14.88;;;;;;;;;;5104425;28;20083;-69
2023/01/03 03:16:48;;;;;;;29.60;15.63;;;;;;;;;;5107208;28;20076;-69
2023/01/03 03:24:58;;;;;;;31.10;15.70;;;;;;;;;;5102266;28;20048;-70
2023/01/03 03:30:11;;;;;;;25.40;15.05;;;;;;;;;;5127269;28;20413;-70
2023/01/03 03:32:38;;;;;;;29.55;16.88;;;;;;;;;;5109588;28;20036;-70
2023/01/03 03:35:05;;;;;;;29.60;16.67;;;;;;;;;;5099805;28;20065;-70
2023/01/03 03:37:33;;;;;;;30.33;16.23;;;;;;;;;;5094246;28;20043;-70
2023/01/03 03:45:32;;;;;;;35.55;17.63;;;;;;;;;;5093789;28;20466;-70
2023/01/03 03:47:58;;;;;;;31.15;17.55;;;;;;;;;;5111409;28;20066;-70
2023/01/03 03:50:47;;;;;;;28.45;17.30;;;;;;;;;;5103230;28;20490;-70
2023/01/03 03:53:13;;;;;;;29.60;17.10;;;;;;;;;;5109733;28;20463;-70
2023/01/03 03:55:58;;;;;;;29.08;16.13;;;;;;;;;;5105720;28;20063;-70
2023/01/03 03:58:28;;;;;;;28.48;16.08;;;;;;;;;;5101768;28;20122;-70
2023/01/03 04:00:54;;;;;;;35.40;18.80;;;;;;;;;;5111018;27;20066;-70
2023/01/03 04:03:21;;;;;;;33.30;18.60;;;;;;;;;;5055864;28;1070657;-71
2023/01/03 04:05:57;;;;;;;35.58;18.15;;;;;;;;;;5095857;28;20442;-70
2023/01/03 04:08:23;;;;;;;34.22;18.65;;;;;;;;;;5094652;28;20048;-71
2023/01/03 04:10:49;;;;;;;30.90;18.00;;;;;;;;;;5117802;27;20055;-70
2023/01/03 04:13:15;;;;;;;35.28;19.10;;;;;;;;;;5109777;27;20097;-70
2023/01/03 04:15:42;;;;;;;38.65;19.85;;;;;;;;;;5100339;28;20047;-70
2023/01/03 04:18:08;;;;;;;35.33;19.67;;;;;;;;;;5107740;28;20055;-70
2023/01/03 04:20:34;;;;;;;35.38;20.35;;;;;;;;;;5106079;28;20044;-70
2023/01/03 04:23:00;;;;;;;38.97;19.88;;;;;;;;;;5099027;28;20790;-70
2023/01/03 04:25:26;;;;;;;37.15;21.90;;;;;;;;;;5120555;27;20125;-70
2023/01/03 04:27:52;;;;;;;40.60;22.55;;;;;;;;;;5103581;27;20192;-70
2023/01/03 04:30:18;;;;;;;42.15;22.35;;;;;;;;;;5103802;28;20048;-70
2023/01/03 04:32:44;;;;;;;40.92;22.13;;;;;;;;;;5094884;28;20502;-70
2023/01/03 04:35:10;;;;;;;36.25;19.00;;;;;;;;;;5099340;28;20044;-70
2023/01/03 04:37:36;;;;;;;36.97;20.75;;;;;;;;;;5098641;28;20085;-70
2023/01/03 04:40:03;;;;;;;37.63;20.05;;;;;;;;;;5107884;28;20043;-70
2023/01/03 04:45:13;;;;;;;40.15;20.60;;;;;;;;;;5104983;28;20048;-70
2023/01/03 04:47:39;;;;;;;39.17;21.45;;;;;;;;;;5093310;28;20055;-70
2023/01/03 04:50:06;;;;;;;38.83;21.25;;;;;;;;;;5093619;28;20165;-70
2023/01/03 04:52:32;;;;;;;40.45;22.83;;;;;;;;;;5101988;28;20032;-70
2023/01/03 04:54:58;;;;;;;35.08;20.80;;;;;;;;;;5096808;27;20405;-70
2023/01/03 04:57:25;;;;;;;39.40;21.05;;;;;;;;;;5107271;27;20105;-70
2023/01/03 04:59:51;;;;;;;42.75;22.50;;;;;;;;;;5094197;28;20048;-70
2023/01/03 05:02:17;;;;;;;43.00;22.58;;;;;;;;;;5096960;28;20560;-70
2023/01/03 05:04:43;;;;;;;44.05;24.23;;;;;;;;;;5105268;28;20071;-70
2023/01/03 05:07:09;;;;;;;44.00;23.30;;;;;;;;;;5094265;28;20048;-70
2023/01/03 05:09:35;;;;;;;41.85;22.55;;;;;;;;;;5093952;28;20127;-70
2023/01/03 05:12:01;;;;;;;41.85;24.52;;;;;;;;;;5104332;28;20032;-70
2023/01/03 05:14:27;;;;;;;39.50;21.98;;;;;;;;;;5112240;28;20044;-71
2023/01/03 05:16:53;;;;;;;37.85;23.70;;;;;;;;;;5107942;28;20044;-70
2023/01/03 05:19:19;;;;;;;39.35;22.85;;;;;;;;;;5097141;28;20035;-70
2023/01/03 05:27:15;;;;;;;42.90;24.58;;;;;;;;;;5096625;28;20127;-70
2023/01/03 05:29:42;;;;;;;38.22;23.70;;;;;;;;;;5092173;28;20089;-70
2023/01/03 05:32:09;;;;;;;42.67;23.40;;;;;;;;;;5100656;27;20043;-70
2023/01/03 05:34:35;;;;;;;46.10;24.85;;;;;;;;;;5093808;28;20051;-70
2023/01/03 05:37:01;;;;;;;43.28;25.55;;;;;;;;;;5094851;28;20040;-70
2023/01/03 05:39:27;;;;;;;45.95;26.10;;;;;;;;;;5095403;28;20039;-70
2023/01/03 05:41:58;;;;;;;45.03;24.55;;;;;;;;;;5100703;28;20131;-69
2023/01/03 05:44:25;;;;;;;46.67;26.73;;;;;;;;;;5113865;27;20396;-70
2023/01/03 05:46:51;;;;;;;45.38;27.65;;;;;;;;;;5131351;27;20035;-70
2023/01/03 05:49:17;;;;;;;40.25;24.90;;;;;;;;;;5120135;27;20510;-70
2023/01/03 05:51:43;;;;;;;44.85;25.60;;;;;;;;;;5099978;28;20057;-70
2023/01/03 05:54:11;;;;;;;49.03;26.95;;;;;;;;;;5107624;28;20044;-70
2023/01/03 05:56:37;;;;;;;45.05;25.38;;;;;;;;;;5106282;28;20040;-70
2023/01/03 05:59:03;;;;;;;40.42;24.30;;;;;;;;;;5109095;28;20044;-70
2023/01/03 06:01:30;;;;;;;42.10;25.15;;;;;;;;;;5099931;28;20088;-70
2023/01/03 06:03:56;;;;;;;41.83;24.90;;;;;;;;;;5100024;28;20054;-70
2023/01/03 06:06:22;;;;;;;41.05;25.90;;;;;;;;;;5100226;28;20553;-70
2023/01/03 06:08:48;;;;;;;42.95;26.08;;;;;;;;;;5094500;28;20477;-70
2023/01/03 06:11:15;;;;;;;40.75;25.63;;;;;;;;;;5092762;28;20105;-70
2023/01/03 06:13:41;;;;;;;40.75;25.23;;;;;;;;;;5109106;28;20044;-70
2023/01/03 06:18:57;;;;;;;40.67;25.38;;;;;;;;;;5098293;28;20048;-70
2023/01/03 06:21:23;;;;;;;39.90;25.95;;;;;;;;;;5111437;28;20036;-69
2023/01/03 06:23:49;;;;;;;41.42;25.70;;;;;;;;;;5126300;27;20040;-70
2023/01/03 06:26:16;;;;;;;44.60;27.38;;;;;;;;;;5091034;28;20406;-70
2023/01/03 06:28:42;;;;;;;44.25;26.42;;;;;;;;;;5100702;28;20048;-69
2023/01/03 06:31:08;;;;;;;43.53;26.38;;;;;;;;;;5094566;28;20502;-70
2023/01/03 06:33:34;;;;;;;40.95;26.58;;;;;;;;;;5110996;28;20035;-69
2023/01/03 06:36:05;;;;;;;39.05;25.42;;;;;;;;;;5100412;28;20490;-69
2023/01/03 06:38:31;;;;;;;39.90;25.13;;;;;;;;;;5105499;28;20509;-69
2023/01/03 06:40:58;;;;;;;39.75;24.92;;;;;;;;;;5110700;28;20035;-70
2023/01/03 06:43:24;;;;;;;42.72;26.88;;;;;;;;;;5097971;28;20482;-70
2023/01/03 06:54:07;;;;;;;45.47;27.40;;;;;;;;;;5099688;28;20044;-70
2023/01/03 06:56:33;;;;;;;44.53;28.63;;;;;;;;;;5105617;28;20040;-70
2023/01/03 06:58:59;;;;;;;45.15;28.20;;;;;;;;;;5096477;28;20401;-69
2023/01/03 07:01:25;;;;;;;48.35;27.98;;;;;;;;;;5100363;28;20056;-69
2023/01/03 07:03:51;;;;;;;51.03;28.60;;;;;;;;;;5102604;28;20040;-70
2023/01/03 07:06:17;;;;;;;45.45;28.10;;;;;;;;;;5108594;28;20048;-69
2023/01/03 07:08:43;;;;;;;50.15;29.40;;;;;;;;;;5096656;28;20479;-70
2023/01/03 07:11:09;;;;;;;48.75;29.75;;;;;;;;;;5099153;28;20401;-69
2023/01/03 07:16:20;;;;;;;47.65;29.75;;;;;;;;;;5102243;28;20131;-69
2023/01/03 07:18:46;;;;;;;44.83;28.02;;;;;;;;;;5115092;28;20113;-69
2023/01/03 07:21:12;;;;;;;49.63;29.40;;;;;;;;;;5101738;28;20040;-70
2023/01/03 07:23:39;;;;;;;45.00;28.55;;;;;;;;;;5105414;27;20040;-70
2023/01/03 07:26:05;;;;;;;41.63;27.88;;;;;;;;;;5101078;28;20040;-69
2023/01/03 07:28:31;;;;;;;44.90;27.52;;;;;;;;;;5096759;28;20059;-70
2023/01/03 07:31:01;;;;;;;43.92;27.48;;;;;;;;;;5099204;28;20497;-70
2023/01/03 07:33:27;;;;;;;48.05;28.15;;;;;;;;;;5100704;28;20130;-69
2023/01/03 07:35:59;;;;;;;50.72;28.48;;;;;;;;;;5109735;28;20054;-70
2023/01/03 07:38:25;;;;;;;47.13;28.33;;;;;;;;;;5093747;27;20092;-70
2023/01/03 07:40:51;;;;;;;48.85;27.63;;;;;;;;;;5108685;28;20097;-70
2023/01/03 07:43:38;;;;;;;44.95;25.88;;;;;;;;;;5098662;28;20056;-70
2023/01/03 07:46:19;;;;;;;62.47;25.77;;;;;;;;;;5107842;28;20047;-70
2023/01/03 07:48:47;;;;;;;99.60;27.23;;;;;;;;;;5111391;28;20527;-70
2023/01/03 07:51:14;;;;;;;117.00;27.73;;;;;;;;;;5099732;28;20100;-69
2023/01/03 07:53:41;;;;;;;107.45;26.33;;;;;;;;;;5116348;27;20097;-69
2023/01/03 07:56:08;;;;;;;132.20;27.05;;;;;;;;;;5114073;27;20443;-69
2023/01/03 07:58:34;;;;;;;87.65;23.67;;;;;;;;;;5106455;27;20036;-70
2023/01/03 08:01:05;;;;;;;92.28;22.88;;;;;;;;;;5093307;28;20123;-72
2023/01/03 08:03:31;;;;;;;83.67;22.30;;;;;;;;;;5103089;28;20044;-70
2023/01/03 08:06:00;;;;;;;100.88;22.23;;;;;;;;;;5092290;28;20177;-70
2023/01/03 08:08:26;;;;;;;140.05;25.05;;;;;;;;;;5102221;27;20122;-70
2023/01/03 08:13:37;;;;;;;159.75;24.10;;;;;;;;;;5113779;28;20043;-70
2023/01/03 08:16:04;;;;;;;207.52;27.05;;;;;;;;;;5112492;28;20117;-70
2023/01/03 08:18:30;;;;;;;95.72;23.05;;;;;;;;;;5112559;27;20057;-70
2023/01/03 08:20:56;;;;;;;120.50;22.85;;;;;;;;;;5113239;28;20053;-70
2023/01/03 08:23:23;;;;;;;134.48;25.45;;;;;;;;;;5114050;28;20123;-71
2023/01/03 08:25:49;;;;;;;124.18;24.25;;;;;;;;;;5113640;28;20048;-70
2023/01/03 08:28:15;;;;;;;100.47;25.00;;;;;;;;;;5108016;28;20039;-70
2023/01/03 08:30:44;;;;;;;178.10;27.45;;;;;;;;;;5101829;28;20052;-70
2023/01/03 08:33:11;;;;;;;181.93;27.52;;;;;;;;;;5112145;28;20074;-70
2023/01/03 08:35:39;;;;;;;173.55;28.38;;;;;;;;;;5113159;28;20054;-70
2023/01/03 08:38:06;;;;;;;111.53;26.58;;;;;;;;;;5111021;28;20040;-70
2023/01/03 08:40:35;;;;;;;223.35;30.70;;;;;;;;;;5111656;28;20054;-70
2023/01/03 08:43:02;;;;;;;200.00;31.10;;;;;;;;;;5105112;28;20052;-70
2023/01/03 08:45:28;;;;;;;120.07;29.60;;;;;;;;;;5106828;28;20043;-70
2023/01/03 08:47:57;;;;;;;181.20;30.80;;;;;;;;;;5110389;28;20051;-70
2023/01/03 08:50:24;;;;;;;126.28;30.42;;;;;;;;;;5095553;28;20096;-70
2023/01/03 08:52:50;;;;;;;175.27;33.92;;;;;;;;;;5103082;27;20096;-70
2023/01/03 08:55:16;;;;;;;117.60;30.45;;;;;;;;;;5126328;27;20039;-70
2023/01/03 08:57:42;;;;;;;135.55;33.33;;;;;;;;;;5133682;27;20103;-71
2023/01/03 09:00:09;;;;;;;205.68;35.22;;;;;;;;;;5113439;27;20080;-71
2023/01/03 09:02:35;;;;;;;144.85;33.22;;;;;;;;;;5110275;27;20047;-71
2023/01/03 09:05:01;;;;;;;136.70;34.38;;;;;;;;;;5113138;27;20505;-72
2023/01/03 09:07:27;;;;;;;118.45;35.58;;;;;;;;;;5112042;28;20118;-70
2023/01/03 09:09:53;;;;;;;112.38;37.28;;;;;;;;;;5113005;28;20126;-70
2023/01/03 09:12:19;;;;;;;120.93;35.90;;;;;;;;;;5111876;28;20047;-69
2023/01/03 09:14:45;;;;;;;122.65;38.63;;;;;;;;;;5111428;28;20466;-71
2023/01/03 09:17:11;;;;;;;117.07;39.42;;;;;;;;;;5112430;28;20047;-71
2023/01/03 09:19:37;;;;;;;112.32;39.17;;;;;;;;;;5110580;28;20043;-74
2023/01/03 09:22:03;;;;;;;118.28;38.78;;;;;;;;;;5109307;28;20050;-71
2023/01/03 09:24:30;;;;;;;126.90;40.90;;;;;;;;;;5100622;27;20138;-70
2023/01/03 09:26:56;;;;;;;105.80;39.58;;;;;;;;;;5112883;28;20051;-77
2023/01/03 09:29:22;;;;;;;115.93;40.97;;;;;;;;;;5112401;28;20055;-72
2023/01/03 09:31:48;;;;;;;109.75;40.70;;;;;;;;;;5111873;28;20074;-73
2023/01/03 09:34:14;;;;;;;97.07;39.38;;;;;;;;;;5103963;28;20035;-75
2023/01/03 09:36:40;;;;;;;106.43;41.83;;;;;;;;;;5111867;28;20089;-73
2023/01/03 09:39:06;;;;;;;104.63;42.17;;;;;;;;;;5111245;28;20175;-74
2023/01/03 09:41:32;;;;;;;104.10;40.60;;;;;;;;;;5093032;28;20547;-75
2023/01/03 09:44:03;;;;;;;101.03;39.70;;;;;;;;;;5092802;28;20079;-74
2023/01/03 09:46:30;;;;;;;93.13;39.97;;;;;;;;;;5095615;28;20039;-73
2023/01/03 09:48:56;;;;;;;88.93;39.85;;;;;;;;;;5111076;28;20550;-74
2023/01/03 10:05:56;;;;;;;68.22;34.92;;;;;;;;;;5100589;28;20482;-72
2023/01/03 10:08:36;;;;;;;72.32;36.08;;;;;;;;;;5107170;28;20040;-72
2023/01/03 10:11:05;;;;;;;75.82;35.95;;;;;;;;;;5108764;28;20039;-75
2023/01/03 10:13:40;;;;;;;72.65;36.63;;;;;;;;;;5119760;28;20047;-72
2023/01/03 10:16:12;;;;;;;72.43;35.30;;;;;;;;;;5132752;27;20046;-72
2023/01/03 10:18:56;;;;;;;72.80;34.95;;;;;;;;;;5117772;27;20050;-72
2023/01/03 10:21:28;;;;;;;70.90;36.47;;;;;;;;;;5111714;28;20051;-73
2023/01/03 10:23:54;;;;;;;77.72;36.22;;;;;;;;;;5106726;28;20044;-73
2023/01/03 10:26:20;;;;;;;78.05;36.65;;;;;;;;;;5091393;28;20055;-72
2023/01/03 10:28:47;;;;;;;86.45;38.55;;;;;;;;;;5097675;28;20039;-72
2023/01/03 10:31:13;;;;;;;89.15;39.53;;;;;;;;;;5114431;28;20128;-73
2023/01/03 10:33:44;;;;;;;94.60;40.15;;;;;;;;;;5098911;28;20521;-72
2023/01/03 10:36:10;;;;;;;96.70;41.88;;;;;;;;;;5116390;28;20093;-73
2023/01/03 10:38:37;;;;;;;94.93;40.45;;;;;;;;;;5125893;27;20055;-72
2023/01/03 10:41:04;;;;;;;97.18;41.90;;;;;;;;;;5136652;27;20546;-72
2023/01/03 10:43:42;;;;;;;106.32;44.25;;;;;;;;;;5111898;27;20055;-73
2023/01/03 10:46:15;;;;;;;107.35;45.20;;;;;;;;;;5098355;28;20071;-73
2023/01/03 10:48:46;;;;;;;94.38;41.38;;;;;;;;;;5109521;28;20040;-72
2023/01/03 10:51:25;;;;;;;96.97;42.90;;;;;;;;;;5116259;28;20040;-73
2023/01/03 10:53:53;;;;;;;107.50;46.13;;;;;;;;;;5116303;28;20046;-73
2023/01/03 10:56:19;;;;;;;99.50;44.70;;;;;;;;;;5116030;28;20056;-73
2023/01/03 10:58:45;;;;;;;105.82;45.38;;;;;;;;;;5097484;28;20051;-73
2023/01/03 11:01:22;;;;;;;96.57;44.20;;;;;;;;;;5113755;28;20387;-73
2023/01/03 11:04:21;;;;;;;100.15;45.60;;;;;;;;;;5115335;28;20546;-73
2023/01/03 11:07:06;;;;;;;100.78;45.65;;;;;;;;;;5061084;28;20127;-73
2023/01/03 11:09:41;;;;;;;98.18;44.33;;;;;;;;;;5095428;28;20097;-73
2023/01/03 11:12:19;;;;;;;98.25;46.00;;;;;;;;;;5113277;28;20043;-72
2023/01/03 11:14:54;;;;;;;87.43;43.42;;;;;;;;;;5115509;28;20474;-73
2023/01/03 11:17:21;;;;;;;85.53;47.15;;;;;;;;;;5115552;28;20576;-73
2023/01/03 11:19:48;;;;;;;84.82;46.90;;;;;;;;;;5105377;28;20210;-73
2023/01/03 11:22:32;;;;;;;83.45;42.90;;;;;;;;;;5100840;28;20119;-72
2023/01/03 11:24:59;;;;;;;92.47;54.80;;;;;;;;;;5102092;27;20047;-72
2023/01/03 11:27:34;;;;;;;78.95;50.55;;;;;;;;;;5113874;27;20044;-72
2023/01/03 11:30:12;;;;;;;82.25;46.65;;;;;;;;;;5101315;27;20048;-72
2023/01/03 11:32:51;;;;;;;96.45;68.20;;;;;;;;;;5102895;28;20032;-73
2023/01/03 11:35:36;;;;;;;86.15;60.55;;;;;;;;;;5114825;28;20048;-73
2023/01/03 11:38:05;;;;;;;78.82;50.85;;;;;;;;;;5100065;28;20355;-73
2023/01/03 11:40:38;;;;;;;84.07;53.05;;;;;;;;;;5103287;28;20055;-73
2023/01/03 11:43:09;;;;;;;80.47;54.22;;;;;;;;;;5106218;27;20486;-72
2023/01/03 11:45:54;;;;;;;77.57;49.53;;;;;;;;;;5095988;27;20048;-72
2023/01/03 11:48:20;;;;;;;84.65;60.95;;;;;;;;;;5097523;27;20481;-73
2023/01/03 11:50:54;;;;;;;69.35;46.10;;;;;;;;;;5100922;27;20039;-72
2023/01/03 11:53:43;;;;;;;72.65;53.97;;;;;;;;;;5097091;27;20414;-73
2023/01/03 11:56:30;;;;;;;63.40;42.70;;;;;;;;;;5099384;28;20044;-73
2023/01/03 11:58:59;;;;;;;60.35;37.80;;;;;;;;;;5113348;28;20050;-73
2023/01/03 12:01:41;;;;;;;58.00;35.40;;;;;;;;;;5111182;28;20056;-73
2023/01/03 12:04:26;;;;;;;60.55;36.22;;;;;;;;;;5099205;28;20110;-73
2023/01/03 12:07:11;;;;;;;59.17;37.60;;;;;;;;;;5105495;28;20126;-73
2023/01/03 12:09:49;;;;;;;64.20;39.53;;;;;;;;;;5106775;27;20146;-73
2023/01/03 12:12:34;;;;;;;55.22;33.35;;;;;;;;;;5093555;28;20181;-73
2023/01/03 12:15:00;;;;;;;51.50;33.05;;;;;;;;;;5112572;28;20035;-71
2023/01/03 12:17:47;;;;;;;57.58;35.45;;;;;;;;;;5111152;28;20093;-73
2023/01/03 12:20:13;;;;;;;46.53;30.00;;;;;;;;;;5097915;27;20075;-72
2023/01/03 12:22:42;;;;;;;51.80;30.40;;;;;;;;;;5111591;27;20047;-71
2023/01/03 12:25:27;;;;;;;47.85;30.38;;;;;;;;;;5109039;27;20036;-72
2023/01/03 12:28:00;;;;;;;43.95;27.02;;;;;;;;;;5110422;28;20464;-71
2023/01/03 12:30:45;;;;;;;42.22;26.50;;;;;;;;;;5112590;27;20059;-71
2023/01/03 12:33:30;;;;;;;43.50;26.80;;;;;;;;;;5097554;28;20041;-72
2023/01/03 12:36:05;;;;;;;39.55;24.80;;;;;;;;;;5110880;28;20192;-72
2023/01/03 12:38:37;;;;;;;40.75;26.17;;;;;;;;;;5106385;28;20059;-72
2023/01/03 12:41:13;;;;;;;40.40;24.60;;;;;;;;;;5105787;28;20043;-72
2023/01/03 12:43:52;;;;;;;36.67;23.52;;;;;;;;;;5095968;28;20497;-71
2023/01/03 12:46:22;;;;;;;44.08;25.05;;;;;;;;;;5094620;28;20051;-71
2023/01/03 12:49:06;;;;;;;42.72;22.65;;;;;;;;;;5093558;28;20036;-71
2023/01/03 12:51:32;;;;;;;34.63;21.63;;;;;;;;;;5093277;28;20097;-72
2023/01/03 12:54:04;;;;;;;34.17;21.15;;;;;;;;;;5099432;28;20036;-72
2023/01/03 12:56:50;;;;;;;36.55;21.67;;;;;;;;;;5096945;28;20044;-71
2023/01/03 12:59:35;;;;;;;30.33;21.75;;;;;;;;;;5092385;28;20125;-71
2023/01/03 13:02:22;;;;;;;36.05;22.70;;;;;;;;;;5104182;28;20439;-72
2023/01/03 13:04:50;;;;;;;37.30;21.98;;;;;;;;;;5080587;28;20043;-72
2023/01/03 13:07:24;;;;;;;36.92;20.60;;;;;;;;;;5098475;28;20047;-72
2023/01/03 13:10:02;;;;;;;39.58;21.35;;;;;;;;;;5111719;28;20040;-72
2023/01/03 13:12:30;;;;;;;38.47;23.00;;;;;;;;;;5112218;27;20044;-72
2023/01/03 13:14:58;;;;;;;37.97;22.83;;;;;;;;;;5109232;28;20048;-71
2023/01/03 13:17:25;;;;;;;43.42;25.38;;;;;;;;;;5092458;28;20044;-72
2023/01/03 13:19:51;;;;;;;35.67;22.05;;;;;;;;;;5103685;28;20044;-72
2023/01/03 13:22:19;;;;;;;32.75;22.35;;;;;;;;;;5094574;28;20082;-72
2023/01/03 13:24:52;;;;;;;39.42;23.35;;;;;;;;;;5097807;28;20036;-72
2023/01/03 13:27:19;;;;;;;38.78;21.55;;;;;;;;;;5110663;28;20036;-73
2023/01/03 13:29:54;;;;;;;40.35;22.55;;;;;;;;;;5109437;27;20046;-72
2023/01/03 13:32:23;;;;;;;39.63;24.00;;;;;;;;;;5113737;27;20124;-72
2023/01/03 13:34:58;;;;;;;39.25;23.00;;;;;;;;;;5107000;28;20086;-72
2023/01/03 13:37:25;;;;;;;37.92;21.27;;;;;;;;;;5109165;28;20043;-72
2023/01/03 13:39:51;;;;;;;35.05;21.33;;;;;;;;;;5099329;28;20123;-72
2023/01/03 13:42:28;;;;;;;44.83;27.17;;;;;;;;;;5096726;28;20047;-72
2023/01/03 13:44:55;;;;;;;37.97;23.92;;;;;;;;;;5101408;27;20100;-72
2023/01/03 13:47:41;;;;;;;36.67;22.85;;;;;;;;;;5103677;28;20051;-72
2023/01/03 13:50:19;;;;;;;38.17;23.42;;;;;;;;;;5108138;28;20047;-72
2023/01/03 13:53:04;;;;;;;41.85;26.95;;;;;;;;;;5106268;28;20049;-72
2023/01/03 13:55:47;;;;;;;36.10;21.98;;;;;;;;;;5108748;28;20050;-71
2023/01/03 13:58:26;;;;;;;36.42;23.08;;;;;;;;;;5112763;28;20039;-72
2023/01/03 14:00:59;;;;;;;35.08;21.60;;;;;;;;;;5102018;28;20044;-72
2023/01/03 14:03:52;;;;;;;36.13;21.38;;;;;;;;;;5100550;28;20154;-72
2023/01/03 14:06:33;;;;;;;32.10;21.25;;;;;;;;;;5113237;28;20047;-72
2023/01/03 14:09:12;;;;;;;36.90;24.13;;;;;;;;;;5106273;28;20480;-72
2023/01/03 14:11:56;;;;;;;36.65;25.35;;;;;;;;;;5108181;28;20062;-72
2023/01/03 14:14:26;;;;;;;31.23;22.60;;;;;;;;;;5114071;27;20459;-72
2023/01/03 14:16:53;;;;;;;36.88;22.65;;;;;;;;;;5111426;27;20047;-72
2023/01/03 14:19:19;;;;;;;31.88;21.67;;;;;;;;;;5103092;27;20086;-72
2023/01/03 14:22:21;;;;;;;30.85;19.92;;;;;;;;;;5105809;27;20071;-72
2023/01/03 14:24:47;;;;;;;;;;;;;;;;;;5065110;28;20098;-72
2023/01/03 14:27:15;;;;;;;32.70;20.95;;;;;;;;;;5066185;28;19982;-72
2023/01/03 14:29:42;;;;;;;30.48;19.75;;;;;;;;;;5052139;28;20106;-72
2023/01/03 14:32:37;;;;;;;29.40;20.40;;;;;;;;;;5072566;28;20052;-72
2023/01/03 14:35:03;;;;;;;31.45;20.50;;;;;;;;;;5056604;28;20402;-72
2023/01/03 14:37:31;;;;;;;32.55;21.80;;;;;;;;;;5072471;28;20036;-72
2023/01/03 14:40:03;;;;;;;30.27;21.08;;;;;;;;;;5071018;28;20064;-72
2023/01/03 14:42:29;;;;;;;31.60;22.10;;;;;;;;;;5071087;28;20044;-72
2023/01/03 14:45:03;;;;;;;30.50;21.20;;;;;;;;;;5071299;28;20481;-72
2023/01/03 14:47:37;;;;;;;25.30;17.35;;;;;;;;;;5081503;28;20044;-72
2023/01/03 14:50:05;;;;;;;30.90;21.48;;;;;;;;;;5061986;28;20384;-72
2023/01/03 14:52:31;;;;;;;25.00;17.45;;;;;;;;;;5079565;28;20068;-72
2023/01/03 14:54:58;;;;;;;27.48;18.95;;;;;;;;;;5074226;28;20595;-72
2023/01/03 14:57:26;;;;;;;25.00;17.65;;;;;;;;;;5085405;28;20037;-71
2023/01/03 14:59:53;;;;;;;25.38;17.23;;;;;;;;;;5124543;27;20070;-71
2023/01/03 15:02:19;;;;;;;28.15;18.20;;;;;;;;;;5117447;28;20082;-72
2023/01/03 15:04:50;;;;;;;26.27;19.08;;;;;;;;;;5106376;28;20105;-72
2023/01/03 15:07:28;;;;;;;24.85;15.45;;;;;;;;;;5111593;28;20063;-72
2023/01/03 15:10:01;;;;;;;24.60;17.77;;;;;;;;;;5113797;27;20479;-72
2023/01/03 15:12:28;;;;;;;28.00;17.02;;;;;;;;;;5119117;27;20043;-72
2023/01/03 15:14:54;;;;;;;24.80;16.10;;;;;;;;;;5126527;27;20404;-72
2023/01/03 15:17:22;;;;;;;25.25;16.75;;;;;;;;;;5114929;28;20109;-72
2023/01/03 15:19:55;;;;;;;20.83;15.13;;;;;;;;;;5104726;28;20055;-72
2023/01/03 15:22:23;;;;;;;33.40;25.27;;;;;;;;;;5112793;27;20052;-72
2023/01/03 15:24:51;;;;;;;27.52;18.67;;;;;;;;;;5107806;27;20059;-72
2023/01/03 15:27:40;;;;;;;27.27;19.77;;;;;;;;;;5114054;28;20516;-72
2023/01/03 15:30:19;;;;;;;29.92;21.65;;;;;;;;;;5112810;28;20063;-73